createdAt,value
2023-02-07T00:01:29.779Z,104280.88
2023-02-07T00:03:57.292Z,104277.41
2023-02-07T00:06:28.439Z,104275.69
2023-02-07T00:08:55.798Z,104283.63
2023-02-07T00:11:23.742Z,104284.59
2023-02-07T00:13:54.188Z,104288.16
2023-02-07T00:16:22.228Z,104281.09
2023-02-07T00:18:49.113Z,104284.72
2023-02-07T00:21:19.075Z,104284.72
2023-02-07T00:23:46.520Z,104275.94
2023-02-07T00:26:15.459Z,104275.06
2023-02-07T00:28:43.351Z,104273.31
2023-02-07T00:31:17.113Z,104281.28
2023-02-07T00:33:44.745Z,104275.16
2023-02-07T00:36:19.068Z,104270.81
2023-02-07T00:38:46.145Z,104269.13
2023-02-07T00:41:18.504Z,104276.09
2023-02-07T00:43:47.254Z,104267.34
2023-02-07T00:46:15.082Z,104268.22
2023-02-07T00:48:41.754Z,104277.94
2023-02-07T00:51:08.828Z,104278.94
2023-02-07T00:53:35.908Z,104282.44
2023-02-07T00:56:03.065Z,104274.56
2023-02-07T00:58:30.130Z,104279.91
2023-02-07T01:00:56.835Z,104277.25
2023-02-07T01:03:24.565Z,104276.38
2023-02-07T01:05:51.480Z,104272.00
2023-02-07T01:08:18.061Z,104270.28
2023-02-07T01:10:45.932Z,104285.28
2023-02-07T01:13:14.129Z,104278.28
2023-02-07T01:15:44.330Z,104280.06
2023-02-07T01:18:11.453Z,104280.09
2023-02-07T01:20:38.320Z,104279.25
2023-02-07T01:23:06.240Z,104288.13
2023-02-07T01:25:34.243Z,104291.69
2023-02-07T01:28:01.087Z,104290.81
2023-02-07T01:30:27.716Z,104291.78
2023-02-07T01:32:55.370Z,104290.88
2023-02-07T01:35:21.979Z,104290.91
2023-02-07T01:37:48.574Z,104290.03
2023-02-07T01:40:15.806Z,104289.22
2023-02-07T01:42:42.715Z,104290.13
2023-02-07T01:45:33.212Z,104277.84
2023-02-07T01:48:03.971Z,104279.63
2023-02-07T01:50:31.871Z,104283.19
2023-02-07T01:53:00.861Z,104285.78
2023-02-07T01:55:31.942Z,104284.03
2023-02-07T01:57:59.459Z,104284.19
2023-02-07T02:00:26.394Z,104281.50
2023-02-07T02:06:34.143Z,104275.47
2023-02-07T02:09:02.747Z,104281.63
2023-02-07T02:11:29.320Z,104289.56
2023-02-07T02:14:33.626Z,104286.97
2023-02-07T02:17:18.710Z,104285.22
2023-02-07T02:20:13.761Z,104285.31
2023-02-07T02:23:08.240Z,104285.31
2023-02-07T02:25:40.964Z,104290.66
2023-02-07T02:28:07.496Z,104281.88
2023-02-07T02:30:39.833Z,104281.00
2023-02-07T02:33:24.084Z,104272.31
2023-02-07T02:36:13.435Z,104281.97
2023-02-07T02:38:51.396Z,104281.09
2023-02-07T02:41:24.048Z,104280.25
2023-02-07T02:44:05.885Z,104282.09
2023-02-07T02:46:36.518Z,104284.81
2023-02-07T02:49:04.960Z,104283.94
2023-02-07T02:51:32.483Z,104280.63
2023-02-07T02:54:00.299Z,104277.06
2023-02-07T02:56:45.177Z,104290.09
2023-02-07T02:59:48.821Z,104292.78
2023-02-07T03:02:29.814Z,104287.66
2023-02-07T03:05:23.725Z,104292.91
2023-02-07T03:08:12.392Z,104286.81
2023-02-07T03:10:49.382Z,104279.81
2023-02-07T03:13:27.022Z,104275.47
2023-02-07T03:16:24.020Z,104275.38
2023-02-07T03:19:12.344Z,104276.28
2023-02-07T03:21:46.811Z,104275.59
2023-02-07T03:24:27.199Z,104271.94
2023-02-07T03:26:58.528Z,104262.38
2023-02-07T03:29:26.345Z,104263.28
2023-02-07T03:31:57.963Z,104261.63
2023-02-07T03:34:44.161Z,104269.44
2023-02-07T03:37:17.174Z,104256.28
2023-02-07T03:39:43.755Z,104261.66
2023-02-07T03:42:21.333Z,104264.25
2023-02-07T03:44:50.869Z,104255.56
2023-02-07T03:47:18.591Z,104262.59
2023-02-07T03:49:45.249Z,104263.47
2023-02-07T03:52:11.798Z,104258.34
2023-02-07T03:54:38.347Z,104264.38
2023-02-07T03:57:04.997Z,104254.84
2023-02-07T03:59:31.666Z,104271.44
2023-02-07T04:01:58.300Z,104259.28
2023-02-07T04:04:24.964Z,104260.09
2023-02-07T04:06:51.640Z,104262.69
2023-02-07T04:09:18.399Z,104247.94
2023-02-07T04:11:45.029Z,104247.91
2023-02-07T04:14:11.589Z,104260.03
2023-02-07T04:16:38.229Z,104241.72
2023-02-07T04:19:04.874Z,104247.00
2023-02-07T04:21:31.457Z,104250.56
2023-02-07T04:23:58.026Z,104246.16
2023-02-07T04:26:24.644Z,104247.94
2023-02-07T04:28:51.177Z,104249.72
2023-02-07T04:31:17.838Z,104256.66
2023-02-07T04:33:44.394Z,104233.03
2023-02-07T04:36:11.158Z,104227.72
2023-02-07T04:38:37.707Z,104254.06
2023-02-07T04:41:05.384Z,104261.06
2023-02-07T04:43:33.378Z,104254.13
2023-02-07T04:46:00.501Z,104254.94
2023-02-07T04:48:27.506Z,104255.06
2023-02-07T04:50:54.069Z,104244.47
2023-02-07T04:53:20.786Z,104241.72
2023-02-07T04:55:52.358Z,104239.13
2023-02-07T04:58:19.721Z,104250.47
2023-02-07T05:00:46.663Z,104238.22
2023-02-07T05:03:13.660Z,104243.56
2023-02-07T05:05:41.772Z,104252.28
2023-02-07T05:08:09.088Z,104253.19
2023-02-07T05:10:35.700Z,104246.28
2023-02-07T05:13:02.259Z,104237.56
2023-02-07T05:15:29.117Z,104235.81
2023-02-07T05:17:57.036Z,104241.81
2023-02-07T05:20:25.107Z,104231.38
2023-02-07T05:22:52.193Z,104238.41
2023-02-07T05:25:19.225Z,104245.47
2023-02-07T05:27:45.818Z,104243.63
2023-02-07T05:30:13.156Z,104239.38
2023-02-07T05:32:58.404Z,104244.50
2023-02-07T05:35:24.991Z,104239.31
2023-02-07T05:37:51.550Z,104245.47
2023-02-07T05:40:18.164Z,104239.31
2023-02-07T05:42:44.743Z,104253.34
2023-02-07T05:45:11.532Z,104242.00
2023-02-07T05:47:38.089Z,104250.78
2023-02-07T05:50:05.284Z,104260.50
2023-02-07T05:52:34.035Z,104260.34
2023-02-07T05:55:02.000Z,104264.81
2023-02-07T05:57:28.564Z,104255.25
2023-02-07T05:59:55.311Z,104260.34
2023-02-07T06:02:22.020Z,104262.22
2023-02-07T06:04:48.688Z,104250.72
2023-02-07T06:07:15.261Z,104256.09
2023-02-07T06:09:41.835Z,104255.25
2023-02-07T06:12:08.401Z,104253.53
2023-02-07T06:14:53.904Z,104217.09
2023-02-07T06:17:22.336Z,104196.22
2023-02-07T06:19:51.637Z,104222.28
2023-02-07T06:22:29.247Z,104260.34
2023-02-07T06:24:59.440Z,104182.25
2023-02-07T06:27:47.955Z,104194.38
2023-02-07T06:30:26.486Z,104192.00
2023-02-07T06:35:49.087Z,104183.22
2023-02-07T06:41:23.901Z,104181.56
2023-02-07T06:44:00.932Z,104236.19
2023-02-07T06:46:37.953Z,104191.16
2023-02-07T06:49:36.692Z,104199.91
2023-02-07T06:52:07.704Z,104217.34
2023-02-07T06:54:42.655Z,104226.94
2023-02-07T06:57:12.883Z,104255.53
2023-02-07T06:59:39.472Z,104276.41
2023-02-07T07:02:06.034Z,104273.03
2023-02-07T07:04:32.687Z,104275.69
2023-02-07T07:06:59.217Z,104275.63
2023-02-07T07:09:25.842Z,104277.31
2023-02-07T07:11:52.424Z,104279.16
2023-02-07T07:16:56.802Z,104259.94
2023-02-07T07:19:24.611Z,104276.47
2023-02-07T07:21:51.450Z,104262.59
2023-02-07T07:24:17.976Z,104274.03
2023-02-07T07:26:49.702Z,104270.53
2023-02-07T07:29:18.251Z,104282.63
2023-02-07T07:31:45.526Z,104281.00
2023-02-07T07:34:34.230Z,104224.69
2023-02-07T07:37:16.088Z,104246.34
2023-02-07T07:39:52.755Z,104222.03
2023-02-07T07:42:22.688Z,104235.97
2023-02-07T07:45:00.590Z,104228.13
2023-02-07T07:47:31.852Z,104228.09
2023-02-07T07:50:16.817Z,104220.16
2023-02-07T07:52:53.843Z,104222.72
2023-02-07T07:55:31.587Z,104270.56
2023-02-07T07:57:58.226Z,104290.50
2023-02-07T08:00:24.880Z,104297.41
2023-02-07T08:02:51.670Z,104309.66
2023-02-07T08:05:18.406Z,104298.38
2023-02-07T08:07:45.003Z,104309.69
2023-02-07T08:10:11.639Z,104291.44
2023-02-07T08:12:38.262Z,104300.81
2023-02-07T08:15:07.748Z,104319.22
2023-02-07T08:17:34.330Z,104312.00
2023-02-07T08:20:00.851Z,104296.25
2023-02-07T08:22:27.611Z,104304.78
2023-02-07T08:24:54.190Z,104308.94
2023-02-07T08:27:20.746Z,104305.25
2023-02-07T08:29:47.313Z,104311.38
2023-02-07T08:32:14.172Z,104299.69
2023-02-07T08:34:40.757Z,104297.13
2023-02-07T08:37:09.129Z,104312.66
2023-02-07T08:39:36.263Z,104317.72
2023-02-07T08:42:05.441Z,104320.16
2023-02-07T08:44:32.411Z,104318.34
2023-02-07T08:46:59.009Z,104311.31
2023-02-07T08:49:25.904Z,104315.56
2023-02-07T08:51:52.852Z,104311.81
2023-02-07T08:54:19.697Z,104309.84
2023-02-07T08:56:46.791Z,104302.72
2023-02-07T08:59:13.470Z,104309.59
2023-02-07T09:01:40.930Z,104292.06
2023-02-07T09:04:08.669Z,104299.63
2023-02-07T09:06:35.327Z,104295.97
2023-02-07T09:09:01.905Z,104299.44
2023-02-07T09:11:28.645Z,104302.91
2023-02-07T09:16:42.436Z,104308.69
2023-02-07T09:19:09.071Z,104315.69
2023-02-07T09:21:37.529Z,104311.16
2023-02-07T09:24:04.524Z,104314.75
2023-02-07T09:26:33.266Z,104305.03
2023-02-07T09:29:00.098Z,104285.59
2023-02-07T09:31:27.301Z,104311.66
2023-02-07T09:33:54.107Z,104302.97
2023-02-07T09:36:24.859Z,104304.66
2023-02-07T09:38:52.219Z,104311.59
2023-02-07T09:41:29.270Z,104308.00
2023-02-07T09:44:14.537Z,104310.72
2023-02-07T09:47:10.389Z,104309.81
2023-02-07T09:50:07.697Z,104308.16
2023-02-07T09:52:41.076Z,104304.63
2023-02-07T09:55:18.892Z,104300.22
2023-02-07T09:58:05.656Z,104305.41
2023-02-07T10:00:35.336Z,104303.84
2023-02-07T10:03:09.595Z,104302.13
2023-02-07T10:05:43.316Z,104317.81
2023-02-07T10:08:16.140Z,104319.66
2023-02-07T10:10:47.528Z,104308.25
2023-02-07T10:13:23.259Z,104317.88
2023-02-07T10:16:10.107Z,104317.97
2023-02-07T10:18:47.200Z,104317.94
2023-02-07T10:22:01.323Z,104320.63
2023-02-07T10:24:49.436Z,104325.06
2023-02-07T10:27:30.401Z,104324.19
2023-02-07T10:30:17.176Z,104326.88
2023-02-07T10:32:46.947Z,104330.44
2023-02-07T10:35:32.083Z,104335.88
2023-02-07T10:38:04.597Z,104328.88
2023-02-07T10:40:51.398Z,104335.03
2023-02-07T10:43:29.845Z,104340.28
2023-02-07T10:46:05.642Z,104331.66
2023-02-07T10:48:33.288Z,104342.97
2023-02-07T10:51:00.855Z,104347.44
2023-02-07T10:53:55.065Z,104342.28
2023-02-07T10:56:26.248Z,104341.31
2023-02-07T10:58:54.256Z,104332.69
2023-02-07T11:01:23.904Z,104333.38
2023-02-07T11:03:50.500Z,104320.34
2023-02-07T11:06:34.490Z,104328.16
2023-02-07T11:09:23.367Z,104306.47
2023-02-07T11:11:52.837Z,104318.59
2023-02-07T11:14:26.581Z,104321.28
2023-02-07T11:16:54.854Z,104316.13
2023-02-07T11:19:25.829Z,104323.03
2023-02-07T11:22:06.494Z,104303.78
2023-02-07T11:24:36.965Z,104309.00
2023-02-07T11:27:23.114Z,104310.69
2023-02-07T11:29:59.159Z,104309.00
2023-02-07T11:32:28.448Z,104305.34
2023-02-07T11:34:59.053Z,104298.47
2023-02-07T11:37:34.142Z,104299.31
2023-02-07T11:40:19.128Z,104301.03
2023-02-07T11:42:49.227Z,104286.19
2023-02-07T11:45:21.284Z,104293.91
2023-02-07T11:47:50.716Z,104283.41
2023-02-07T11:50:43.811Z,104289.50
2023-02-07T11:53:24.548Z,104285.13
2023-02-07T11:55:54.423Z,104282.41
2023-02-07T11:58:46.599Z,104267.59
2023-02-07T12:01:18.370Z,104262.25
2023-02-07T12:03:52.890Z,104269.38
2023-02-07T12:06:23.415Z,104270.25
2023-02-07T12:08:50.303Z,104260.56
2023-02-07T12:11:25.333Z,104272.63
2023-02-07T12:14:09.900Z,104267.53
2023-02-07T12:16:46.519Z,104271.09
2023-02-07T12:19:22.374Z,104283.22
2023-02-07T12:21:52.543Z,104280.63
2023-02-07T12:24:29.433Z,104281.44
2023-02-07T12:27:05.129Z,104265.81
2023-02-07T12:29:52.439Z,104277.94
2023-02-07T12:32:30.388Z,104274.53
2023-02-07T12:35:41.136Z,104255.25
2023-02-07T12:38:42.286Z,104276.09
2023-02-07T12:41:20.058Z,104284.88
2023-02-07T12:44:26.136Z,104276.06
2023-02-07T12:47:06.948Z,104274.31
2023-02-07T12:50:05.013Z,104272.53
2023-02-07T12:52:51.807Z,104276.00
2023-02-07T12:55:51.122Z,104273.31
2023-02-07T12:58:42.006Z,104268.88
2023-02-07T13:01:20.972Z,104268.00
2023-02-07T13:04:06.159Z,104260.00
2023-02-07T13:06:42.484Z,104256.50
2023-02-07T13:09:24.809Z,104252.97
2023-02-07T13:12:09.907Z,104254.66
2023-02-07T13:14:51.562Z,104252.84
2023-02-07T13:17:45.673Z,104248.41
2023-02-07T13:20:35.539Z,104237.03
2023-02-07T13:23:21.326Z,104239.50
2023-02-07T13:25:53.335Z,104227.34
2023-02-07T13:28:41.514Z,104243.00
2023-02-07T13:31:11.890Z,104232.50
2023-02-07T13:33:42.322Z,104234.16
2023-02-07T13:36:29.240Z,104235.06
2023-02-07T13:39:15.033Z,104228.91
2023-02-07T13:41:50.440Z,104231.41
2023-02-07T13:44:20.310Z,104227.88
2023-02-07T13:47:34.951Z,104236.66
2023-02-07T13:50:12.447Z,104233.09
2023-02-07T13:52:38.956Z,104226.88
2023-02-07T13:55:28.605Z,104224.31
2023-02-07T13:58:14.836Z,104225.09
2023-02-07T14:00:47.448Z,104226.81
2023-02-07T14:03:29.887Z,104210.16
2023-02-07T14:06:28.755Z,104221.53
2023-02-07T14:09:03.004Z,104228.47
2023-02-07T14:11:41.537Z,104219.69
2023-02-07T14:14:25.491Z,104227.56
2023-02-07T14:16:58.556Z,104217.13
2023-02-07T14:19:40.432Z,104232.81
2023-02-07T14:22:20.977Z,104222.34
2023-02-07T14:25:03.443Z,104209.97
2023-02-07T14:27:40.186Z,104226.69
2023-02-07T14:30:12.734Z,104237.09
2023-02-07T14:32:43.942Z,104222.06
2023-02-07T14:35:16.930Z,104226.44
2023-02-07T14:37:53.717Z,104229.09
2023-02-07T14:40:22.381Z,104230.84
2023-02-07T14:43:01.686Z,104216.84
2023-02-07T14:45:34.292Z,104216.72
2023-02-07T14:48:01.285Z,104214.09
2023-02-07T14:50:33.713Z,104211.56
2023-02-07T14:53:04.591Z,104210.53
2023-02-07T14:55:43.323Z,104212.22
2023-02-07T14:58:25.797Z,104215.72
2023-02-07T15:00:56.200Z,104222.81
2023-02-07T15:03:22.869Z,104217.34
2023-02-07T15:06:03.361Z,104220.00
2023-02-07T15:08:37.874Z,104215.59
2023-02-07T15:11:07.259Z,104213.88
2023-02-07T15:13:41.413Z,104229.59
2023-02-07T15:16:16.229Z,104223.38
2023-02-07T15:19:11.951Z,104221.63
2023-02-07T15:21:43.039Z,104216.38
2023-02-07T15:24:15.843Z,104217.13
2023-02-07T15:26:42.632Z,104216.31
2023-02-07T15:29:21.311Z,104209.34
2023-02-07T15:31:48.154Z,104213.66
2023-02-07T15:34:17.757Z,104205.81
2023-02-07T15:36:46.667Z,104214.50
2023-02-07T15:39:24.628Z,104215.22
2023-02-07T15:41:55.693Z,104209.19
2023-02-07T15:44:24.078Z,104228.47
2023-02-07T15:47:07.366Z,104217.88
2023-02-07T15:49:41.403Z,104211.78
2023-02-07T15:52:17.133Z,104220.53
2023-02-07T15:54:49.366Z,104210.88
2023-02-07T15:57:29.997Z,104198.69
2023-02-07T16:00:01.771Z,104211.66
2023-02-07T16:02:35.912Z,104211.66
2023-02-07T16:05:20.828Z,104212.66
2023-02-07T16:07:50.143Z,104212.69
2023-02-07T16:10:39.481Z,104214.31
2023-02-07T16:13:20.632Z,104216.97
2023-02-07T16:16:07.882Z,104221.38
2023-02-07T16:18:43.175Z,104205.75
2023-02-07T16:21:17.934Z,104215.31
2023-02-07T16:23:46.377Z,104211.84
2023-02-07T16:26:15.333Z,104210.97
2023-02-07T16:28:42.006Z,104211.94
2023-02-07T16:31:08.909Z,104207.50
2023-02-07T16:33:35.560Z,104196.22
2023-02-07T16:36:02.289Z,104212.69
2023-02-07T16:38:28.946Z,104218.06
2023-02-07T16:40:55.620Z,104205.81
2023-02-07T16:43:39.863Z,104218.06
2023-02-07T16:46:06.517Z,104209.38
2023-02-07T16:48:33.186Z,104217.28
2023-02-07T16:51:01.341Z,104221.81
2023-02-07T16:53:28.378Z,104232.28
2023-02-07T16:55:56.804Z,104220.97
2023-02-07T16:58:31.512Z,104238.47
2023-02-07T17:00:58.357Z,104226.31
2023-02-07T17:03:24.937Z,104236.78
2023-02-07T17:05:51.553Z,104236.81
2023-02-07T17:08:23.165Z,104218.53
2023-02-07T17:10:56.659Z,104225.28
2023-02-07T17:13:23.236Z,104217.53
2023-02-07T17:15:49.779Z,104227.13
2023-02-07T17:18:16.392Z,104223.75
2023-02-07T17:20:43.129Z,104231.56
2023-02-07T17:23:09.653Z,104222.97
2023-02-07T17:25:36.205Z,104225.41
2023-02-07T17:28:02.856Z,104226.53
2023-02-07T17:30:38.264Z,104220.38
2023-02-07T17:33:06.183Z,104217.78
2023-02-07T17:35:33.732Z,104228.22
2023-02-07T17:38:00.856Z,104230.97
2023-02-07T17:40:40.884Z,104229.19
2023-02-07T17:43:08.496Z,104230.06
2023-02-07T17:45:37.002Z,104232.72
2023-02-07T17:48:04.829Z,104241.53
2023-02-07T17:50:34.410Z,104241.53
2023-02-07T17:53:02.007Z,104225.09
2023-02-07T17:55:33.025Z,104238.06
2023-02-07T17:58:00.398Z,104246.06
2023-02-07T18:00:31.896Z,104245.19
2023-02-07T18:02:58.486Z,104247.09
2023-02-07T18:05:25.170Z,104243.47
2023-02-07T18:07:52.126Z,104234.88
2023-02-07T18:10:28.215Z,104253.22
2023-02-07T18:12:55.064Z,104240.22
2023-02-07T18:15:22.337Z,104229.72
2023-02-07T18:17:50.529Z,104252.38
2023-02-07T18:20:24.601Z,104259.41
2023-02-07T18:22:52.792Z,104254.13
2023-02-07T18:25:19.315Z,104244.59
2023-02-07T18:27:47.443Z,104251.50
2023-02-07T18:30:15.102Z,104256.03
2023-02-07T18:32:42.474Z,104239.41
2023-02-07T18:35:09.977Z,104246.28
2023-02-07T18:37:36.585Z,104234.19
2023-02-07T18:40:04.380Z,104244.56
2023-02-07T18:42:31.444Z,104237.53
2023-02-07T18:44:58.110Z,104229.84
2023-02-07T18:47:25.292Z,104238.50
2023-02-07T18:49:51.837Z,104227.16
2023-02-07T18:52:18.760Z,104229.75
2023-02-07T18:54:45.352Z,104242.97
2023-02-07T18:57:12.098Z,104247.25
2023-02-07T18:59:38.925Z,104241.19
2023-02-07T19:02:07.695Z,104240.16
2023-02-07T19:04:35.398Z,104239.41
2023-02-07T19:07:02.269Z,104229.72
2023-02-07T19:09:28.968Z,104234.91
2023-02-07T19:11:57.528Z,104227.09
2023-02-07T19:14:28.790Z,104237.63
2023-02-07T19:16:56.353Z,104235.13
2023-02-07T19:19:25.358Z,104226.47
2023-02-07T19:21:52.055Z,104242.16
2023-02-07T19:24:19.565Z,104237.75
2023-02-07T19:26:51.522Z,104231.75
2023-02-07T19:29:24.667Z,104244.84
2023-02-07T19:31:51.298Z,104240.63
2023-02-07T19:34:17.908Z,104226.59
2023-02-07T19:36:44.473Z,104225.69
2023-02-07T19:39:11.513Z,104234.56
2023-02-07T19:41:38.098Z,104238.84
2023-02-07T19:44:04.781Z,104238.94
2023-02-07T19:46:31.389Z,104239.91
2023-02-07T19:48:58.898Z,104243.38
2023-02-07T19:51:28.398Z,104239.88
2023-02-07T19:53:56.101Z,104238.25
2023-02-07T19:56:24.474Z,104232.28
2023-02-07T19:58:53.719Z,104256.69
2023-02-07T20:01:21.954Z,104251.50
2023-02-07T20:03:53.257Z,104257.59
2023-02-07T20:06:23.942Z,104250.69
2023-02-07T20:08:51.354Z,104259.38
2023-02-07T20:11:20.259Z,104244.50
2023-02-07T20:13:52.417Z,104241.97
2023-02-07T20:16:25.087Z,104243.47
2023-02-07T20:18:52.919Z,104246.13
2023-02-07T20:21:23.712Z,104240.19
2023-02-07T20:23:51.768Z,104260.25
2023-02-07T20:26:24.230Z,104246.34
2023-02-07T20:28:51.394Z,104247.09
2023-02-07T20:31:22.245Z,104245.53
2023-02-07T20:33:49.216Z,104244.38
2023-02-07T20:36:17.678Z,104255.97
2023-02-07T20:38:45.972Z,104246.47
2023-02-07T20:41:36.059Z,104250.72
2023-02-07T20:44:05.669Z,104239.50
2023-02-07T20:46:34.495Z,104247.31
2023-02-07T20:49:04.407Z,104244.66
2023-02-07T20:51:31.634Z,104233.41
2023-02-07T20:54:00.444Z,104241.22
2023-02-07T20:56:28.429Z,104239.44
2023-02-07T20:58:57.909Z,104243.97
2023-02-07T21:01:27.198Z,104244.88
2023-02-07T21:03:56.380Z,104240.44
2023-02-07T21:06:24.053Z,104221.28
2023-02-07T21:09:02.643Z,104232.63
2023-02-07T21:11:36.354Z,104240.53
2023-02-07T21:14:05.083Z,104232.63
2023-02-07T21:16:31.961Z,104243.09
2023-02-07T21:18:59.147Z,104234.47
2023-02-07T21:21:26.208Z,104230.03
2023-02-07T21:23:52.867Z,104223.91
2023-02-07T21:26:20.682Z,104233.41
2023-02-07T21:28:47.670Z,104229.09
2023-02-07T21:31:19.950Z,104229.94
2023-02-07T21:33:49.681Z,104228.19
2023-02-07T21:36:19.782Z,104229.97
2023-02-07T21:38:49.232Z,104210.78
2023-02-07T21:41:18.068Z,104220.38
2023-02-07T21:43:44.977Z,104219.50
2023-02-07T21:46:17.882Z,104218.59
2023-02-07T21:48:53.378Z,104225.63
2023-02-07T21:51:22.672Z,104202.16
2023-02-07T21:53:50.687Z,104219.47
2023-02-07T21:56:20.533Z,104206.41
2023-02-07T21:58:47.820Z,104214.25
2023-02-07T22:01:18.091Z,104210.78
2023-02-07T22:03:46.922Z,104220.44
2023-02-07T22:06:15.662Z,104214.34
2023-02-07T22:08:47.630Z,104216.13
2023-02-07T22:11:14.562Z,104214.44
2023-02-07T22:13:42.525Z,104234.59
2023-02-07T22:16:10.749Z,104215.34
2023-02-07T22:18:37.444Z,104215.41
2023-02-07T22:21:06.614Z,104230.25
2023-02-07T22:23:33.634Z,104218.75
2023-02-07T22:26:00.434Z,104216.28
2023-02-07T22:28:27.013Z,104210.09
2023-02-07T22:30:53.658Z,104216.22
2023-02-07T22:33:20.375Z,104209.19
2023-02-07T22:35:46.968Z,104206.53
2023-02-07T22:38:14.085Z,104205.63
2023-02-07T22:40:42.737Z,104202.13
2023-02-07T22:43:12.791Z,104211.72
2023-02-07T22:45:42.507Z,104201.25
2023-02-07T22:48:09.197Z,104184.88
2023-02-07T22:50:35.763Z,104197.88
2023-02-07T22:53:02.337Z,104193.44
2023-02-07T22:55:28.915Z,104191.75
2023-02-07T22:57:55.578Z,104189.09
2023-02-07T23:00:22.331Z,104188.28
2023-02-07T23:02:48.929Z,104190.00
2023-02-07T23:05:15.837Z,104197.88
2023-02-07T23:07:44.102Z,104188.41
2023-02-07T23:10:11.348Z,104191.03
2023-02-07T23:12:39.207Z,104187.56
2023-02-07T23:15:06.774Z,104189.31
2023-02-07T23:17:34.004Z,104179.69
2023-02-07T23:20:00.535Z,104198.13
2023-02-07T23:22:27.112Z,104198.22
2023-02-07T23:24:56.731Z,104200.88
2023-02-07T23:27:23.377Z,104198.34
2023-02-07T23:29:49.975Z,104199.19
2023-02-07T23:32:16.576Z,104199.19
2023-02-07T23:34:43.148Z,104206.19
2023-02-07T23:37:09.729Z,104202.78
2023-02-07T23:39:36.544Z,104192.28
2023-02-07T23:42:03.219Z,104200.22
2023-02-07T23:44:29.824Z,104195.88
2023-02-07T23:46:56.358Z,104213.38
2023-02-07T23:49:24.337Z,104196.72
2023-02-07T23:51:50.904Z,104210.88
2023-02-07T23:54:17.448Z,104207.25
2023-02-07T23:56:43.968Z,104203.84
2023-02-07T23:59:12.293Z,104197.81
